createdAt,value
2022-09-10T00:00:08.829Z,15.10
2022-09-10T00:00:18.244Z,15.20
2022-09-10T00:00:27.648Z,15.20
2022-09-10T00:00:37.062Z,15.20
2022-09-10T00:00:46.470Z,15.20
2022-09-10T00:00:55.878Z,15.30
2022-09-10T00:01:05.329Z,15.30
2022-09-10T00:01:14.731Z,15.30
2022-09-10T00:01:24.363Z,15.30
2022-09-10T00:01:33.598Z,15.40
2022-09-10T00:01:43.022Z,15.40
2022-09-10T00:01:52.525Z,15.40
2022-09-10T00:02:01.972Z,15.40
2022-09-10T00:02:11.312Z,15.50
2022-09-10T00:02:20.691Z,15.50
2022-09-10T00:02:30.101Z,15.50
2022-09-10T00:02:48.966Z,15.60
2022-09-10T00:02:58.408Z,15.60
2022-09-10T00:03:07.764Z,15.60
2022-09-10T00:03:17.186Z,15.60
2022-09-10T00:03:26.585Z,15.70
2022-09-10T00:03:35.975Z,15.70
2022-09-10T00:03:45.389Z,15.70
2022-09-10T00:03:54.862Z,15.70
2022-09-10T00:04:04.193Z,15.70
2022-09-10T00:04:13.603Z,15.70
2022-09-10T00:04:22.992Z,15.80
2022-09-10T00:04:32.381Z,15.80
2022-09-10T00:04:41.810Z,15.80
2022-09-10T00:04:51.199Z,15.90
2022-09-10T00:05:00.635Z,15.80
2022-09-10T00:05:10.040Z,15.90
2022-09-10T00:05:28.853Z,15.90
2022-09-10T00:05:38.257Z,15.90
2022-09-10T00:05:47.731Z,16.00
2022-09-10T00:05:57.137Z,15.90
2022-09-10T00:06:06.568Z,15.90
2022-09-10T00:06:15.977Z,16.00
2022-09-10T00:06:25.432Z,16.00
2022-09-10T00:06:34.882Z,16.00
2022-09-10T00:06:44.294Z,16.00
2022-09-10T00:06:53.726Z,16.00
2022-09-10T00:07:03.144Z,16.00
2022-09-10T00:07:12.567Z,16.10
2022-09-10T00:07:21.990Z,16.10
2022-09-10T00:07:31.408Z,16.10
2022-09-10T00:07:40.829Z,16.10
2022-09-10T00:07:50.229Z,16.10
2022-09-10T00:07:59.642Z,16.10
2022-09-10T00:08:18.484Z,16.10
2022-09-10T00:08:27.888Z,16.10
2022-09-10T00:08:37.489Z,16.20
2022-09-10T00:08:46.713Z,16.20
2022-09-10T00:08:56.132Z,16.20
2022-09-10T00:09:05.529Z,16.20
2022-09-10T00:09:14.905Z,16.20
2022-09-10T00:09:24.310Z,16.20
2022-09-10T00:09:33.719Z,16.20
2022-09-10T00:09:43.106Z,16.20
2022-09-10T00:09:52.523Z,16.20
2022-09-10T00:10:01.972Z,16.20
2022-09-10T00:10:11.398Z,16.20
2022-09-10T00:10:20.840Z,16.30
2022-09-10T00:10:30.239Z,16.30
2022-09-10T00:10:39.667Z,16.30
2022-09-10T00:10:58.617Z,16.30
2022-09-10T00:11:08.038Z,16.30
2022-09-10T00:11:17.438Z,16.30
2022-09-10T00:11:26.842Z,16.30
2022-09-10T00:11:36.313Z,16.30
2022-09-10T00:11:45.740Z,16.30
2022-09-10T00:11:55.164Z,16.30
2022-09-10T00:12:04.583Z,16.30
2022-09-10T00:12:13.982Z,16.30
2022-09-10T00:12:23.422Z,16.30
2022-09-10T00:12:32.821Z,16.30
2022-09-10T00:12:42.232Z,16.40
2022-09-10T00:12:51.654Z,16.40
2022-09-10T00:13:01.040Z,16.40
2022-09-10T00:13:10.436Z,16.40
2022-09-10T00:13:19.862Z,16.30
2022-09-10T00:13:38.735Z,16.40
2022-09-10T00:13:48.178Z,16.40
2022-09-10T00:13:57.618Z,16.40
2022-09-10T00:14:07.027Z,16.40
2022-09-10T00:14:16.444Z,16.40
2022-09-10T00:14:25.846Z,16.40
2022-09-10T00:14:35.317Z,16.40
2022-09-10T00:14:44.722Z,16.40
2022-09-10T00:14:54.153Z,16.40
2022-09-10T00:15:03.603Z,16.40
2022-09-10T00:15:13.054Z,16.40
2022-09-10T00:15:22.482Z,16.40
2022-09-10T00:15:31.912Z,16.40
2022-09-10T00:15:41.337Z,16.50
2022-09-10T00:15:50.844Z,16.50
2022-09-10T00:16:00.243Z,16.50
2022-09-10T00:16:09.725Z,16.50
2022-09-10T00:16:28.590Z,16.50
2022-09-10T00:16:37.906Z,16.50
2022-09-10T00:16:47.278Z,16.50
2022-09-10T00:16:56.726Z,16.50
2022-09-10T00:17:06.154Z,16.50
2022-09-10T00:17:15.607Z,16.50
2022-09-10T00:17:25.001Z,16.50
2022-09-10T00:17:34.398Z,16.50
2022-09-10T00:17:43.840Z,16.50
2022-09-10T00:17:53.234Z,16.50
2022-09-10T00:18:02.734Z,16.50
2022-09-10T00:18:12.242Z,16.50
2022-09-10T00:18:21.889Z,16.50
2022-09-10T00:18:31.402Z,16.50
2022-09-10T00:18:40.787Z,16.50
2022-09-10T00:18:50.207Z,16.50
2022-09-10T00:18:59.816Z,16.50
2022-09-10T00:19:18.656Z,16.50
2022-09-10T00:19:28.048Z,16.50
2022-09-10T00:19:37.475Z,16.50
2022-09-10T00:19:46.920Z,16.50
2022-09-10T00:19:56.297Z,16.50
2022-09-10T00:20:05.748Z,16.50
2022-09-10T00:20:15.139Z,16.50
2022-09-10T00:20:24.563Z,16.50
2022-09-10T00:20:33.973Z,16.50
2022-09-10T00:20:43.374Z,16.50
2022-09-10T00:20:52.786Z,16.50
2022-09-10T00:21:02.201Z,16.40
2022-09-10T00:21:11.651Z,16.50
2022-09-10T00:21:21.096Z,16.50
2022-09-10T00:21:30.526Z,16.50
2022-09-10T00:21:39.925Z,16.50
2022-09-10T00:21:58.809Z,16.50
2022-09-10T00:22:08.233Z,16.50
2022-09-10T00:22:17.714Z,16.50
2022-09-10T00:22:27.233Z,16.50
2022-09-10T00:22:36.640Z,16.50
2022-09-10T00:22:46.059Z,16.50
2022-09-10T00:22:55.491Z,16.50
2022-09-10T00:23:04.919Z,16.50
2022-09-10T00:23:14.354Z,16.50
2022-09-10T00:23:23.805Z,16.50
2022-09-10T00:23:33.227Z,16.50
2022-09-10T00:23:42.657Z,16.50
2022-09-10T00:23:52.090Z,16.50
2022-09-10T00:24:01.503Z,16.50
2022-09-10T00:24:10.918Z,16.50
2022-09-10T00:24:20.313Z,16.50
2022-09-10T00:24:29.708Z,16.50
2022-09-10T00:24:48.521Z,16.50
2022-09-10T00:24:57.922Z,16.50
2022-09-10T00:25:08.495Z,16.50
2022-09-10T00:25:16.806Z,16.50
2022-09-10T00:25:26.226Z,16.50
2022-09-10T00:25:35.628Z,16.50
2022-09-10T00:25:45.013Z,16.50
2022-09-10T00:25:54.419Z,16.50
2022-09-10T00:26:03.814Z,16.50
2022-09-10T00:26:15.954Z,16.60
2022-09-10T00:26:25.374Z,16.50
2022-09-10T00:26:34.802Z,16.60
2022-09-10T00:26:44.226Z,16.60
2022-09-10T00:26:53.647Z,16.50
2022-09-10T00:27:03.092Z,16.60
2022-09-10T00:27:12.502Z,16.60
2022-09-10T00:27:21.910Z,16.60
2022-09-10T00:27:31.359Z,16.60
2022-09-10T00:27:40.776Z,16.60
2022-09-10T00:27:50.204Z,16.60
2022-09-10T00:27:59.659Z,16.60
2022-09-10T00:28:18.501Z,16.60
2022-09-10T00:28:27.914Z,16.60
2022-09-10T00:28:37.562Z,16.60
2022-09-10T00:28:46.744Z,16.60
2022-09-10T00:28:56.150Z,16.60
2022-09-10T00:29:05.597Z,16.60
2022-09-10T00:29:15.024Z,16.60
2022-09-10T00:29:24.448Z,16.60
2022-09-10T00:29:33.877Z,16.60
2022-09-10T00:29:43.285Z,16.60
2022-09-10T00:29:52.696Z,16.60
2022-09-10T00:30:02.200Z,16.60
2022-09-10T00:30:11.733Z,16.60
2022-09-10T00:30:21.182Z,16.60
2022-09-10T00:30:30.586Z,16.60
2022-09-10T00:30:39.981Z,16.60
2022-09-10T00:30:58.926Z,16.60
2022-09-10T00:31:08.362Z,16.60
2022-09-10T00:31:17.755Z,16.60
2022-09-10T00:31:27.202Z,16.60
2022-09-10T00:31:36.618Z,16.60
2022-09-10T00:31:46.022Z,16.60
2022-09-10T00:31:55.383Z,16.60
2022-09-10T00:32:04.796Z,16.70
2022-09-10T00:32:14.186Z,16.70
2022-09-10T00:32:23.612Z,16.60
2022-09-10T00:32:33.033Z,16.70
2022-09-10T00:32:42.449Z,16.70
2022-09-10T00:32:51.846Z,16.70
2022-09-10T00:33:01.295Z,16.70
2022-09-10T00:33:10.701Z,16.60
2022-09-10T00:33:20.203Z,16.70
2022-09-10T00:33:29.602Z,16.70
2022-09-10T00:33:48.414Z,16.70
2022-09-10T00:33:57.822Z,16.70
2022-09-10T00:34:07.265Z,16.70
2022-09-10T00:34:16.682Z,16.70
2022-09-10T00:34:26.136Z,16.70
2022-09-10T00:34:35.580Z,16.60
2022-09-10T00:34:44.994Z,16.70
2022-09-10T00:34:54.423Z,16.70
2022-09-10T00:35:03.883Z,16.70
2022-09-10T00:35:13.293Z,16.70
2022-09-10T00:35:22.717Z,16.70
2022-09-10T00:35:32.144Z,16.70
2022-09-10T00:35:41.556Z,16.70
2022-09-10T00:35:50.976Z,16.70
2022-09-10T00:36:00.523Z,16.70
2022-09-10T00:36:09.931Z,16.70
2022-09-10T00:36:28.789Z,16.70
2022-09-10T00:36:38.174Z,16.70
2022-09-10T00:36:47.580Z,16.70
2022-09-10T00:36:57.001Z,16.70
2022-09-10T00:37:06.402Z,16.70
2022-09-10T00:37:15.809Z,16.70
2022-09-10T00:37:25.193Z,16.70
2022-09-10T00:37:34.585Z,16.70
2022-09-10T00:37:43.992Z,16.70
2022-09-10T00:37:53.407Z,16.70
2022-09-10T00:38:02.837Z,16.70
2022-09-10T00:38:12.254Z,16.70
2022-09-10T00:38:21.646Z,16.70
2022-09-10T00:38:31.223Z,16.70
2022-09-10T00:38:40.562Z,16.70
2022-09-10T00:38:49.955Z,16.70
2022-09-10T00:39:08.753Z,16.70
2022-09-10T00:39:18.157Z,16.70
2022-09-10T00:39:27.601Z,16.70
2022-09-10T00:39:37.059Z,16.80
2022-09-10T00:39:46.498Z,16.70
2022-09-10T00:39:55.911Z,16.70
2022-09-10T00:40:05.280Z,16.70
2022-09-10T00:40:14.651Z,16.80
2022-09-10T00:40:24.070Z,16.80
2022-09-10T00:40:33.470Z,16.80
2022-09-10T00:40:42.910Z,16.80
2022-09-10T00:40:52.382Z,16.80
2022-09-10T00:41:01.810Z,16.80
2022-09-10T00:41:11.226Z,16.80
2022-09-10T00:41:20.651Z,16.70
2022-09-10T00:41:30.078Z,16.80
2022-09-10T00:41:48.907Z,16.80
2022-09-10T00:41:58.310Z,16.80
2022-09-10T00:42:07.702Z,16.80
2022-09-10T00:42:17.096Z,16.80
2022-09-10T00:42:26.511Z,16.80
2022-09-10T00:42:35.906Z,16.80
2022-09-10T00:42:45.296Z,16.80
2022-09-10T00:42:54.694Z,16.80
2022-09-10T00:43:04.134Z,16.80
2022-09-10T00:43:13.535Z,16.80
2022-09-10T00:43:22.938Z,16.80
2022-09-10T00:43:32.347Z,16.80
2022-09-10T00:43:41.744Z,16.80
2022-09-10T00:43:51.155Z,16.80
2022-09-10T00:44:00.626Z,16.80
2022-09-10T00:44:10.022Z,16.80
2022-09-10T00:44:31.587Z,16.80
2022-09-10T00:44:38.285Z,16.80
2022-09-10T00:44:47.682Z,16.80
2022-09-10T00:44:57.112Z,16.80
2022-09-10T00:45:06.506Z,16.80
2022-09-10T00:45:15.920Z,16.80
2022-09-10T00:45:25.358Z,16.80
2022-09-10T00:45:34.755Z,16.80
2022-09-10T00:45:44.207Z,16.80
2022-09-10T00:45:53.579Z,16.80
2022-09-10T00:46:03.071Z,16.80
2022-09-10T00:46:12.397Z,16.80
2022-09-10T00:46:21.816Z,16.80
2022-09-10T00:46:31.223Z,16.80
2022-09-10T00:46:40.674Z,16.80
2022-09-10T00:46:50.083Z,16.80
2022-09-10T00:47:08.918Z,16.80
2022-09-10T00:47:18.331Z,16.80
2022-09-10T00:47:27.822Z,16.80
2022-09-10T00:47:37.232Z,16.80
2022-09-10T00:47:46.663Z,16.80
2022-09-10T00:47:56.060Z,16.80
2022-09-10T00:48:05.496Z,16.80
2022-09-10T00:48:14.887Z,16.80
2022-09-10T00:48:24.335Z,16.80
2022-09-10T00:48:33.707Z,16.80
2022-09-10T00:48:43.202Z,16.80
2022-09-10T00:48:52.595Z,16.80
2022-09-10T00:49:02.025Z,16.80
2022-09-10T00:49:11.423Z,16.80
2022-09-10T00:49:20.891Z,16.80
2022-09-10T00:49:30.283Z,16.80
2022-09-10T00:49:39.698Z,16.80
2022-09-10T00:49:58.555Z,16.80
2022-09-10T00:50:07.964Z,16.80
2022-09-10T00:50:17.381Z,16.80
2022-09-10T00:50:26.803Z,16.80
2022-09-10T00:50:36.208Z,16.80
2022-09-10T00:50:45.613Z,16.80
2022-09-10T00:50:55.008Z,16.80
2022-09-10T00:51:04.421Z,16.80
2022-09-10T00:51:13.855Z,16.80
2022-09-10T00:51:23.273Z,16.80
2022-09-10T00:51:32.762Z,16.80
2022-09-10T00:51:42.170Z,16.80
2022-09-10T00:51:51.596Z,16.80
2022-09-10T00:52:00.995Z,16.80
2022-09-10T00:52:10.386Z,16.80
2022-09-10T00:52:19.789Z,16.80
2022-09-10T00:52:39.986Z,16.80
2022-09-10T00:52:48.031Z,16.80
2022-09-10T00:52:57.434Z,16.70
2022-09-10T00:53:06.857Z,16.80
2022-09-10T00:53:16.275Z,16.70
2022-09-10T00:53:25.690Z,16.80
2022-09-10T00:53:35.107Z,16.70
2022-09-10T00:53:44.511Z,16.70
2022-09-10T00:53:53.906Z,16.70
2022-09-10T00:54:03.370Z,16.70
2022-09-10T00:54:12.782Z,16.70
2022-09-10T00:54:22.186Z,16.70
2022-09-10T00:54:31.586Z,16.70
2022-09-10T00:54:41.014Z,16.70
2022-09-10T00:54:50.434Z,16.70
2022-09-10T00:54:59.916Z,16.70
2022-09-10T00:55:18.704Z,16.70
2022-09-10T00:55:28.151Z,16.80
2022-09-10T00:55:37.558Z,16.80
2022-09-10T00:55:47.028Z,16.80
2022-09-10T00:55:56.443Z,16.80
2022-09-10T00:56:05.855Z,16.70
2022-09-10T00:56:15.287Z,16.70
2022-09-10T00:56:24.753Z,16.70
2022-09-10T00:56:34.164Z,16.70
2022-09-10T00:56:43.577Z,16.70
2022-09-10T00:56:53.004Z,16.70
2022-09-10T00:57:02.436Z,16.80
2022-09-10T00:57:11.846Z,16.70
2022-09-10T00:57:21.322Z,16.60
2022-09-10T00:57:30.744Z,16.60
2022-09-10T00:57:40.173Z,16.60
2022-09-10T00:57:49.596Z,16.60
2022-09-10T00:58:08.438Z,16.60
2022-09-10T00:58:17.861Z,16.50
2022-09-10T00:58:27.275Z,16.50
2022-09-10T00:58:36.775Z,16.50
2022-09-10T00:58:46.118Z,16.50
2022-09-10T00:58:55.538Z,16.50
2022-09-10T00:59:04.964Z,16.40
2022-09-10T00:59:14.422Z,16.40
2022-09-10T00:59:23.847Z,16.40
2022-09-10T00:59:33.264Z,16.40
2022-09-10T00:59:42.674Z,16.30
2022-09-10T00:59:52.104Z,16.30
2022-09-10T01:00:01.609Z,16.30
2022-09-10T01:00:11.011Z,16.30
2022-09-10T01:00:20.468Z,16.20
2022-09-10T01:00:29.884Z,16.20
2022-09-10T01:00:48.809Z,16.20
2022-09-10T01:00:58.224Z,16.10
2022-09-10T01:01:07.709Z,16.10
2022-09-10T01:01:17.043Z,16.10
2022-09-10T01:01:26.448Z,16.10
2022-09-10T01:01:35.985Z,16.10
2022-09-10T01:01:45.338Z,16.10
2022-09-10T01:01:54.764Z,16.00
2022-09-10T01:02:04.161Z,16.00
2022-09-10T01:02:13.576Z,16.00
2022-09-10T01:02:23.002Z,15.90
2022-09-10T01:02:32.429Z,15.90
2022-09-10T01:02:41.859Z,15.90
2022-09-10T01:02:51.312Z,15.90
2022-09-10T01:03:00.757Z,15.90
2022-09-10T01:03:10.186Z,15.80
2022-09-10T01:03:22.443Z,15.80
2022-09-10T01:03:38.471Z,15.80
2022-09-10T01:03:47.890Z,15.80
2022-09-10T01:03:57.314Z,15.80
2022-09-10T01:04:06.770Z,15.70
2022-09-10T01:04:16.196Z,15.70
2022-09-10T01:04:25.615Z,15.70
2022-09-10T01:04:35.066Z,15.70
2022-09-10T01:04:44.490Z,15.70
2022-09-10T01:04:53.910Z,15.70
2022-09-10T01:05:03.302Z,15.70
2022-09-10T01:05:12.719Z,15.70
2022-09-10T01:05:22.136Z,15.60
2022-09-10T01:05:31.560Z,15.60
2022-09-10T01:05:40.987Z,15.60
2022-09-10T01:05:50.445Z,15.60
2022-09-10T01:05:59.927Z,15.60
2022-09-10T01:06:18.788Z,15.60
2022-09-10T01:06:28.248Z,15.50
2022-09-10T01:06:37.683Z,15.50
2022-09-10T01:06:47.097Z,15.50
2022-09-10T01:06:56.551Z,15.50
2022-09-10T01:07:05.988Z,15.50
2022-09-10T01:07:15.418Z,15.50
2022-09-10T01:07:24.852Z,15.30
2022-09-10T01:07:34.248Z,15.40
2022-09-10T01:07:43.698Z,15.40
2022-09-10T01:07:53.114Z,15.40
2022-09-10T01:08:02.606Z,15.40
2022-09-10T01:08:12.026Z,15.40
2022-09-10T01:08:21.448Z,15.40
2022-09-10T01:08:30.932Z,15.40
2022-09-10T01:08:40.419Z,15.40
2022-09-10T01:08:49.759Z,15.40
2022-09-10T01:09:08.618Z,15.30
2022-09-10T01:09:18.033Z,15.30
2022-09-10T01:09:27.460Z,15.30
2022-09-10T01:09:36.872Z,15.30
2022-09-10T01:09:46.289Z,15.30
2022-09-10T01:09:55.717Z,15.30
2022-09-10T01:10:05.146Z,15.30
2022-09-10T01:10:14.567Z,15.30
2022-09-10T01:10:23.979Z,15.30
2022-09-10T01:10:33.444Z,15.20
2022-09-10T01:10:42.862Z,15.20
2022-09-10T01:10:52.424Z,15.20
2022-09-10T01:11:01.883Z,15.20
2022-09-10T01:11:11.314Z,15.20
2022-09-10T01:11:20.714Z,15.20
2022-09-10T01:11:30.157Z,15.20
2022-09-10T01:11:39.582Z,15.20
2022-09-10T01:11:58.436Z,15.20
2022-09-10T01:12:07.858Z,15.20
2022-09-10T01:12:17.268Z,15.20
2022-09-10T01:12:26.688Z,15.20
2022-09-10T01:12:36.193Z,15.10
2022-09-10T01:12:45.613Z,15.20
2022-09-10T01:12:55.026Z,15.10
2022-09-10T01:13:04.480Z,15.10
2022-09-10T01:13:13.966Z,15.10
2022-09-10T01:13:23.390Z,15.10
2022-09-10T01:13:32.821Z,15.10
2022-09-10T01:13:42.243Z,15.10
2022-09-10T01:13:51.686Z,15.10
2022-09-10T01:14:01.112Z,15.20
2022-09-10T01:14:10.554Z,15.10
2022-09-10T01:14:19.984Z,15.10
2022-09-10T01:14:38.830Z,15.00
2022-09-10T01:14:48.238Z,15.00
2022-09-10T01:14:57.632Z,15.00
2022-09-10T01:15:07.042Z,15.00
2022-09-10T01:15:16.471Z,15.00
2022-09-10T01:15:25.888Z,15.00
2022-09-10T01:15:35.322Z,15.00
2022-09-10T01:15:44.741Z,15.00
2022-09-10T01:15:54.245Z,15.00
2022-09-10T01:16:03.680Z,15.00
2022-09-10T01:16:13.154Z,15.00
2022-09-10T01:16:22.587Z,15.00
2022-09-10T01:16:35.262Z,15.00
2022-09-10T01:16:44.650Z,15.00
2022-09-10T01:16:54.080Z,15.00
2022-09-10T01:17:03.504Z,15.00
2022-09-10T01:17:12.970Z,15.00
2022-09-10T01:17:22.395Z,15.00
2022-09-10T01:17:31.815Z,15.00
2022-09-10T01:17:41.334Z,15.00
2022-09-10T01:17:50.784Z,15.00
2022-09-10T01:18:00.218Z,15.00
2022-09-10T01:18:09.650Z,15.00
2022-09-10T01:18:28.510Z,15.00
2022-09-10T01:18:38.156Z,15.00
2022-09-10T01:18:47.320Z,14.90
2022-09-10T01:18:56.731Z,14.90
2022-09-10T01:19:06.153Z,14.90
2022-09-10T01:19:15.586Z,14.90
2022-09-10T01:19:25.009Z,14.90
2022-09-10T01:19:34.427Z,14.90
2022-09-10T01:19:43.838Z,14.90
2022-09-10T01:19:53.262Z,14.90
2022-09-10T01:20:02.684Z,14.90
2022-09-10T01:20:12.109Z,14.90
2022-09-10T01:20:21.521Z,14.90
2022-09-10T01:20:31.015Z,14.80
2022-09-10T01:20:40.433Z,14.90
2022-09-10T01:20:49.859Z,14.90
2022-09-10T01:21:08.726Z,14.90
2022-09-10T01:21:18.148Z,14.90
2022-09-10T01:21:27.561Z,14.90
2022-09-10T01:21:37.008Z,14.90
2022-09-10T01:21:46.445Z,15.00
2022-09-10T01:21:55.841Z,15.00
2022-09-10T01:22:05.267Z,15.00
2022-09-10T01:22:14.673Z,15.00
2022-09-10T01:22:24.104Z,15.00
2022-09-10T01:22:33.517Z,15.00
2022-09-10T01:22:42.923Z,15.00
2022-09-10T01:22:52.349Z,15.10
2022-09-10T01:23:01.768Z,15.10
2022-09-10T01:23:15.684Z,15.10
2022-09-10T01:23:20.627Z,15.10
2022-09-10T01:23:30.047Z,15.20
2022-09-10T01:23:48.902Z,15.20
2022-09-10T01:23:58.307Z,15.20
2022-09-10T01:24:07.712Z,15.20
2022-09-10T01:24:17.188Z,15.30
2022-09-10T01:24:26.575Z,15.30
2022-09-10T01:24:35.980Z,15.30
2022-09-10T01:24:45.449Z,15.30
2022-09-10T01:24:54.926Z,15.40
2022-09-10T01:25:04.426Z,15.40
2022-09-10T01:25:13.832Z,15.40
2022-09-10T01:25:23.235Z,15.40
2022-09-10T01:25:32.674Z,15.40
2022-09-10T01:25:42.060Z,15.50
2022-09-10T01:25:51.466Z,15.50
2022-09-10T01:26:00.886Z,15.50
2022-09-10T01:26:10.323Z,15.50
2022-09-10T01:26:19.723Z,15.60
2022-09-10T01:26:38.578Z,15.60
2022-09-10T01:26:47.993Z,15.60
2022-09-10T01:26:57.386Z,15.60
2022-09-10T01:27:06.811Z,15.70
2022-09-10T01:27:16.264Z,15.70
2022-09-10T01:27:25.672Z,15.80
2022-09-10T01:27:35.190Z,15.70
2022-09-10T01:27:44.603Z,15.70
2022-09-10T01:27:54.038Z,15.80
2022-09-10T01:28:03.421Z,15.80
2022-09-10T01:28:12.836Z,15.80
2022-09-10T01:28:22.231Z,15.80
2022-09-10T01:28:31.669Z,15.80
2022-09-10T01:28:41.033Z,15.90
2022-09-10T01:28:50.421Z,15.90
2022-09-10T01:28:59.833Z,15.90
2022-09-10T01:29:18.616Z,15.90
2022-09-10T01:29:28.022Z,15.90
2022-09-10T01:29:37.464Z,16.00
2022-09-10T01:29:46.897Z,16.00
2022-09-10T01:29:56.351Z,16.00
2022-09-10T01:30:05.744Z,16.00
2022-09-10T01:30:15.158Z,16.00
2022-09-10T01:30:24.537Z,16.10
2022-09-10T01:30:33.944Z,16.10
2022-09-10T01:30:43.362Z,16.10
2022-09-10T01:30:52.747Z,16.10
2022-09-10T01:31:02.216Z,16.10
2022-09-10T01:31:11.651Z,16.10
2022-09-10T01:31:21.056Z,16.10
2022-09-10T01:31:30.493Z,16.10
2022-09-10T01:31:40.006Z,16.20
2022-09-10T01:31:58.724Z,16.20
2022-09-10T01:32:08.162Z,16.20
2022-09-10T01:32:17.633Z,16.20
2022-09-10T01:32:27.016Z,16.20
2022-09-10T01:32:36.468Z,16.20
2022-09-10T01:32:45.863Z,16.20
2022-09-10T01:32:55.307Z,16.30
2022-09-10T01:33:04.794Z,16.30
2022-09-10T01:33:14.230Z,16.30
2022-09-10T01:33:23.680Z,16.30
2022-09-10T01:33:33.089Z,16.30
2022-09-10T01:33:42.531Z,16.30
2022-09-10T01:33:51.910Z,16.30
2022-09-10T01:34:01.351Z,16.30
2022-09-10T01:34:10.783Z,16.30
2022-09-10T01:34:20.213Z,16.40
2022-09-10T01:34:29.629Z,16.40
2022-09-10T01:34:48.421Z,16.40
2022-09-10T01:34:57.824Z,16.40
2022-09-10T01:35:07.247Z,16.40
2022-09-10T01:35:16.671Z,16.40
2022-09-10T01:35:26.089Z,16.40
2022-09-10T01:35:35.507Z,16.40
2022-09-10T01:35:44.893Z,16.40
2022-09-10T01:35:54.309Z,16.50
2022-09-10T01:36:03.747Z,16.40
2022-09-10T01:36:13.171Z,16.50
2022-09-10T01:36:22.612Z,16.50
2022-09-10T01:36:32.034Z,16.50
2022-09-10T01:36:41.447Z,16.50
2022-09-10T01:36:50.836Z,16.50
2022-09-10T01:37:00.254Z,16.50
2022-09-10T01:37:09.674Z,16.50
2022-09-10T01:37:28.524Z,16.50
2022-09-10T01:37:37.961Z,16.50
2022-09-10T01:37:47.408Z,16.50
2022-09-10T01:37:56.832Z,16.50
2022-09-10T01:38:06.238Z,16.50
2022-09-10T01:38:15.644Z,16.50
2022-09-10T01:38:25.027Z,16.50
2022-09-10T01:38:34.591Z,16.50
2022-09-10T01:38:43.903Z,16.60
2022-09-10T01:38:53.314Z,16.60
2022-09-10T01:39:02.840Z,16.60
2022-09-10T01:39:12.253Z,16.60
2022-09-10T01:39:21.674Z,16.60
2022-09-10T01:39:31.075Z,16.60
2022-09-10T01:39:40.523Z,16.60
2022-09-10T01:39:49.956Z,16.60
2022-09-10T01:40:08.874Z,16.60
2022-09-10T01:40:18.213Z,16.60
2022-09-10T01:40:27.636Z,16.60
2022-09-10T01:40:37.045Z,16.60
2022-09-10T01:40:46.489Z,16.60
2022-09-10T01:40:55.880Z,16.50
2022-09-10T01:41:05.304Z,16.50
2022-09-10T01:41:14.702Z,16.50
2022-09-10T01:41:24.148Z,16.50
2022-09-10T01:41:33.624Z,16.50
2022-09-10T01:41:43.028Z,16.50
2022-09-10T01:41:52.430Z,16.40
2022-09-10T01:42:01.825Z,16.40
2022-09-10T01:42:11.212Z,16.40
2022-09-10T01:42:20.605Z,16.40
2022-09-10T01:42:30.023Z,16.30
2022-09-10T01:42:48.887Z,16.30
2022-09-10T01:42:58.288Z,16.30
2022-09-10T01:43:07.787Z,16.30
2022-09-10T01:43:17.230Z,16.20
2022-09-10T01:43:26.652Z,16.20
2022-09-10T01:43:36.075Z,16.20
2022-09-10T01:43:45.506Z,16.20
2022-09-10T01:43:54.948Z,16.20
2022-09-10T01:44:04.401Z,16.10
2022-09-10T01:44:13.829Z,16.10
2022-09-10T01:44:23.244Z,16.10
2022-09-10T01:44:32.700Z,16.10
2022-09-10T01:44:42.327Z,16.10
2022-09-10T01:44:51.750Z,16.00
2022-09-10T01:45:01.219Z,16.00
2022-09-10T01:45:10.652Z,16.00
2022-09-10T01:45:20.113Z,15.90
2022-09-10T01:45:29.593Z,15.90
2022-09-10T01:45:48.453Z,15.90
2022-09-10T01:45:57.894Z,15.90
2022-09-10T01:46:07.330Z,15.80
2022-09-10T01:46:16.742Z,15.80
2022-09-10T01:46:26.202Z,15.80
2022-09-10T01:46:36.332Z,15.80
2022-09-10T01:46:45.822Z,15.80
2022-09-10T01:46:55.302Z,15.80
2022-09-10T01:47:04.766Z,15.70
2022-09-10T01:47:14.229Z,15.70
2022-09-10T01:47:23.669Z,15.70
2022-09-10T01:47:33.087Z,15.70
2022-09-10T01:47:42.525Z,15.70
2022-09-10T01:47:51.962Z,15.70
2022-09-10T01:48:01.422Z,15.60
2022-09-10T01:48:10.836Z,15.60
2022-09-10T01:48:20.248Z,15.60
2022-09-10T01:48:29.660Z,15.60
2022-09-10T01:48:48.514Z,15.50
2022-09-10T01:48:57.923Z,15.50
2022-09-10T01:49:07.324Z,15.50
2022-09-10T01:49:16.737Z,15.50
2022-09-10T01:49:26.148Z,15.50
2022-09-10T01:49:35.573Z,15.50
2022-09-10T01:49:44.988Z,15.50
2022-09-10T01:49:54.402Z,15.40
2022-09-10T01:50:03.827Z,15.40
2022-09-10T01:50:13.233Z,15.40
2022-09-10T01:50:22.664Z,15.40
2022-09-10T01:50:32.059Z,15.40
2022-09-10T01:50:41.486Z,15.40
2022-09-10T01:50:50.905Z,15.40
2022-09-10T01:51:00.322Z,15.40
2022-09-10T01:51:09.736Z,15.40
2022-09-10T01:51:28.550Z,15.30
2022-09-10T01:51:37.994Z,15.30
2022-09-10T01:51:47.444Z,15.30
2022-09-10T01:51:56.914Z,15.30
2022-09-10T01:52:06.336Z,15.30
2022-09-10T01:52:15.766Z,15.30
2022-09-10T01:52:25.164Z,15.20
2022-09-10T01:52:34.565Z,15.20
2022-09-10T01:52:43.990Z,15.20
2022-09-10T01:52:53.427Z,15.20
2022-09-10T01:53:02.899Z,15.20
2022-09-10T01:53:12.318Z,15.20
2022-09-10T01:53:21.734Z,15.20
2022-09-10T01:53:31.155Z,15.20
2022-09-10T01:53:40.591Z,15.10
2022-09-10T01:53:50.003Z,15.10
2022-09-10T01:54:08.868Z,15.10
2022-09-10T01:54:18.286Z,15.10
2022-09-10T01:54:27.702Z,15.10
2022-09-10T01:54:37.143Z,15.10
2022-09-10T01:54:46.535Z,15.10
2022-09-10T01:54:55.947Z,15.10
2022-09-10T01:55:05.371Z,15.00
2022-09-10T01:55:14.812Z,15.00
2022-09-10T01:55:24.216Z,15.00
2022-09-10T01:55:33.626Z,15.00
2022-09-10T01:55:43.056Z,15.00
2022-09-10T01:55:52.471Z,15.00
2022-09-10T01:56:02.062Z,15.00
2022-09-10T01:56:11.482Z,15.00
2022-09-10T01:56:20.885Z,15.00
2022-09-10T01:56:30.286Z,15.00
2022-09-10T01:56:39.719Z,15.00
2022-09-10T01:56:58.621Z,15.00
2022-09-10T01:57:08.045Z,15.00
2022-09-10T01:57:17.454Z,15.00
2022-09-10T01:57:26.866Z,14.90
2022-09-10T01:57:36.272Z,14.90
2022-09-10T01:57:45.691Z,14.90
2022-09-10T01:57:55.151Z,14.90
2022-09-10T01:58:04.576Z,14.90
2022-09-10T01:58:14.012Z,14.90
2022-09-10T01:58:23.421Z,14.90
2022-09-10T01:58:32.843Z,14.90
2022-09-10T01:58:42.328Z,14.90
2022-09-10T01:58:51.724Z,14.90
2022-09-10T01:59:01.161Z,14.90
2022-09-10T01:59:10.587Z,14.90
2022-09-10T01:59:20.004Z,14.90
2022-09-10T01:59:38.842Z,14.90
2022-09-10T01:59:48.270Z,14.90
2022-09-10T01:59:57.688Z,14.90
2022-09-10T02:00:07.108Z,14.90
2022-09-10T02:00:16.532Z,14.90
2022-09-10T02:00:25.956Z,14.90
2022-09-10T02:00:35.368Z,14.80
2022-09-10T02:00:44.839Z,14.90
2022-09-10T02:00:54.271Z,14.80
2022-09-10T02:01:03.750Z,14.80
2022-09-10T02:01:13.102Z,14.80
2022-09-10T02:01:22.557Z,14.80
2022-09-10T02:01:31.906Z,14.80
2022-09-10T02:01:41.461Z,14.80
2022-09-10T02:01:50.838Z,14.80
2022-09-10T02:02:00.233Z,14.80
2022-09-10T02:02:09.662Z,14.80
2022-09-10T02:02:28.451Z,14.80
2022-09-10T02:02:37.891Z,14.80
2022-09-10T02:02:47.308Z,14.80
2022-09-10T02:02:56.722Z,14.80
2022-09-10T02:03:06.137Z,14.80
2022-09-10T02:03:15.577Z,14.80
2022-09-10T02:03:24.978Z,14.80
2022-09-10T02:03:34.386Z,14.80
2022-09-10T02:03:43.839Z,14.80
2022-09-10T02:03:53.282Z,14.80
2022-09-10T02:04:02.684Z,14.80
2022-09-10T02:04:12.095Z,14.80
2022-09-10T02:04:21.521Z,14.80
2022-09-10T02:04:30.929Z,14.80
2022-09-10T02:04:40.351Z,14.80
2022-09-10T02:04:49.766Z,14.80
2022-09-10T02:05:08.650Z,14.80
2022-09-10T02:05:18.065Z,14.80
2022-09-10T02:05:27.470Z,14.80
2022-09-10T02:05:36.884Z,14.80
2022-09-10T02:05:46.550Z,14.80
2022-09-10T02:05:55.963Z,14.80
2022-09-10T02:06:05.376Z,14.80
2022-09-10T02:06:14.808Z,14.80
2022-09-10T02:06:24.233Z,14.80
2022-09-10T02:06:33.642Z,14.80
2022-09-10T02:06:43.096Z,14.80
2022-09-10T02:06:52.515Z,14.80
2022-09-10T02:07:01.960Z,14.80
2022-09-10T02:07:11.445Z,14.80
2022-09-10T02:07:20.846Z,14.80
2022-09-10T02:07:30.257Z,14.80
2022-09-10T02:07:39.667Z,14.70
2022-09-10T02:07:58.477Z,14.80
2022-09-10T02:08:07.893Z,14.80
2022-09-10T02:08:17.299Z,14.80
2022-09-10T02:08:26.735Z,14.70
2022-09-10T02:08:36.161Z,14.70
2022-09-10T02:08:45.566Z,14.80